Time;durP1;ratioP1;P1;durP2;ratioP2;P2;SDS_P1;SDS_P2;PMS_P1;PMS_P2;Temp;Humidity;BMP_temperature;BMP_pressure;BME280_temperature;BME280_humidity;BME280_pressure;Samples;Min_cycle;Max_cycle;Signal;HPM_P1;HPM_P2
2023/08/13 00:01:57;;;;;;;25.05;11.48;;;;;;;18.87;100.00;99185.34;5010647;28;20065;-58
2023/08/13 00:04:22;;;;;;;21.20;12.25;;;;;;;18.86;100.00;99186.41;5014978;28;20021;-58
2023/08/13 00:06:47;;;;;;;21.95;10.63;;;;;;;18.81;100.00;99183.59;5016586;28;20084;-58
2023/08/13 00:09:13;;;;;;;18.70;10.18;;;;;;;18.78;100.00;99175.84;5003069;28;20017;-58
2023/08/13 00:11:38;;;;;;;19.90;11.13;;;;;;;18.73;100.00;99175.75;5009613;28;20120;-58
2023/08/13 00:14:03;;;;;;;16.88;10.00;;;;;;;18.72;100.00;99172.16;5010115;28;20092;-59
2023/08/13 00:16:29;;;;;;;20.42;9.60;;;;;;;18.71;100.00;99177.91;5008422;28;20032;-59
2023/08/13 00:18:54;;;;;;;24.20;9.93;;;;;;;18.62;100.00;99174.72;5010241;28;20029;-58
2023/08/13 00:21:20;;;;;;;15.68;10.13;;;;;;;18.57;100.00;99175.47;5009103;28;20120;-58
2023/08/13 00:23:45;;;;;;;20.65;9.85;;;;;;;18.52;100.00;99175.41;5025361;28;20029;-58
2023/08/13 00:26:11;;;;;;;16.10;9.75;;;;;;;18.49;100.00;99175.88;5017263;28;20025;-58
2023/08/13 00:28:36;;;;;;;15.63;8.70;;;;;;;18.46;100.00;99179.09;5018558;28;20221;-58
2023/08/13 00:31:02;;;;;;;14.43;8.85;;;;;;;18.40;100.00;99177.34;5014308;28;20033;-58
2023/08/13 00:33:27;;;;;;;18.75;10.63;;;;;;;18.32;100.00;99166.78;5017692;28;20029;-58
2023/08/13 00:35:52;;;;;;;18.15;8.93;;;;;;;18.29;100.00;99178.25;5031238;28;20469;-58
2023/08/13 00:38:18;;;;;;;14.90;8.75;;;;;;;18.39;100.00;99182.00;5017349;28;20369;-58
2023/08/13 00:40:45;;;;;;;13.77;9.18;;;;;;;18.45;100.00;99182.94;5018145;28;20029;-58
2023/08/13 00:48:13;;;;;;;21.73;9.50;;;;;;;18.28;100.00;99173.81;5079166;22;20072;-74
2023/08/13 00:50:39;;;;;;;17.52;9.43;;;;;;;18.32;100.00;99180.50;5036873;28;20037;-74
2023/08/13 00:53:06;;;;;;;16.10;9.63;;;;;;;18.31;100.00;99184.28;5055121;28;20031;-74
2023/08/13 00:55:32;;;;;;;14.25;9.50;;;;;;;18.44;100.00;99191.38;5033095;28;20517;-74
2023/08/13 00:57:58;;;;;;;17.73;10.05;;;;;;;18.38;100.00;99179.50;5053052;28;20021;-74
2023/08/13 01:00:23;;;;;;;14.10;9.52;;;;;;;18.29;100.00;99170.03;5052547;28;20120;-74
2023/08/13 01:02:49;;;;;;;11.68;8.70;;;;;;;18.32;100.00;99183.22;5048930;28;20029;-74
2023/08/13 01:05:14;;;;;;;15.05;9.23;;;;;;;18.25;100.00;99186.09;5051328;28;20470;-74
2023/08/13 01:07:54;;;;;;;14.57;8.60;;;;;;;18.22;100.00;99181.13;5034560;28;20125;-74
2023/08/13 01:10:33;;;;;;;12.57;8.55;;;;;;;18.25;100.00;99168.84;5050143;28;20029;-75
2023/08/13 01:13:30;;;;;;;15.13;8.80;;;;;;;18.18;100.00;99172.56;5051374;28;20040;-75
2023/08/13 01:15:58;;;;;;;13.07;8.07;;;;;;;18.11;100.00;99173.78;5029173;28;20036;-74
2023/08/13 01:18:24;;;;;;;9.05;7.47;;;;;;;18.11;100.00;99177.34;5048805;28;20017;-74
2023/08/13 01:20:49;;;;;;;12.88;7.75;;;;;;;18.14;100.00;99181.50;5054121;28;20418;-75
2023/08/13 01:23:15;;;;;;;14.40;6.85;;;;;;;18.08;100.00;99182.50;5050910;28;20081;-75
2023/08/13 01:25:47;;;;;;;10.55;7.45;;;;;;;18.07;100.00;99172.59;5050190;28;20021;-75
2023/08/13 01:28:39;;;;;;;10.90;7.80;;;;;;;18.09;100.00;99176.75;5061898;28;20016;-74
2023/08/13 01:31:11;;;;;;;12.30;8.55;;;;;;;18.03;100.00;99185.13;5042383;28;20036;-75
2023/08/13 01:33:40;;;;;;;15.57;8.30;;;;;;;18.05;100.00;99199.38;5051281;28;20120;-75
2023/08/13 01:36:05;;;;;;;102.05;10.60;;;;;;;17.94;100.00;99190.13;5055482;28;20551;-75
2023/08/13 01:38:32;;;;;;;14.13;9.45;;;;;;;17.93;100.00;99177.53;5038048;28;20044;-75
2023/08/13 01:41:00;;;;;;;39.63;9.63;;;;;;;18.00;100.00;99183.69;5053552;28;20029;-74
2023/08/13 01:43:26;;;;;;;15.90;8.13;;;;;;;17.94;100.00;99180.00;5051529;28;20467;-74
2023/08/13 01:45:51;;;;;;;11.13;8.02;;;;;;;17.83;100.00;99174.56;5034447;28;20032;-74
2023/08/13 01:48:16;;;;;;;35.38;10.93;;;;;;;17.81;100.00;99174.78;5051404;28;20024;-74
2023/08/13 01:50:42;;;;;;;15.88;10.43;;;;;;;17.81;100.00;99173.97;5047324;28;20576;-74
2023/08/13 01:53:07;;;;;;;15.07;9.77;;;;;;;17.82;100.00;99178.41;5043565;28;20025;-74
2023/08/13 01:55:32;;;;;;;16.77;10.88;;;;;;;17.80;100.00;99172.31;5052954;28;20100;-74
2023/08/13 01:57:58;;;;;;;19.23;10.98;;;;;;;17.78;100.00;99164.31;5053030;28;20023;-74
2023/08/13 02:00:23;;;;;;;15.75;10.00;;;;;;;17.83;100.00;99180.88;5023362;28;20498;-73
2023/08/13 02:02:48;;;;;;;18.42;10.77;;;;;;;17.86;100.00;99176.81;5032493;28;20528;-74
2023/08/13 02:05:14;;;;;;;24.70;11.43;;;;;;;17.89;100.00;99182.66;5034353;28;20024;-74
2023/08/13 02:07:39;;;;;;;22.30;10.80;;;;;;;17.92;100.00;99175.84;5052922;28;20550;-74
2023/08/13 02:10:05;;;;;;;15.95;10.07;;;;;;;18.00;100.00;99191.06;5051697;28;20398;-75
2023/08/13 02:12:30;;;;;;;15.57;9.20;;;;;;;18.00;100.00;99163.69;5034990;28;20052;-74
2023/08/13 02:14:55;;;;;;;15.02;9.45;;;;;;;18.01;100.00;99174.41;5045505;28;20109;-74
2023/08/13 02:17:21;;;;;;;12.32;8.98;;;;;;;18.10;100.00;99180.31;5051529;28;20020;-74
2023/08/13 02:19:46;;;;;;;15.65;8.90;;;;;;;17.92;100.00;99189.53;5035031;28;20029;-74
2023/08/13 02:22:11;;;;;;;12.90;9.23;;;;;;;17.89;100.00;99184.53;5050256;28;20035;-74
2023/08/13 02:24:37;;;;;;;17.58;9.75;;;;;;;17.87;100.00;99183.97;5051865;28;20020;-74
2023/08/13 02:27:02;;;;;;;17.85;10.55;;;;;;;18.03;100.00;99190.59;5051966;28;20040;-75
2023/08/13 02:29:28;;;;;;;17.00;9.43;;;;;;;18.14;100.00;99190.56;5049232;28;20028;-74
2023/08/13 02:31:53;;;;;;;17.13;9.38;;;;;;;18.20;100.00;99187.91;5044176;28;20037;-74
2023/08/13 02:34:18;;;;;;;14.43;9.07;;;;;;;18.13;100.00;99175.22;5048764;28;20043;-74
2023/08/13 02:36:44;;;;;;;19.60;9.43;;;;;;;18.11;100.00;99177.34;5052356;28;20033;-74
2023/08/13 02:39:09;;;;;;;13.25;9.15;;;;;;;18.12;100.00;99181.75;5052006;28;20036;-74
2023/08/13 02:41:34;;;;;;;14.85;9.38;;;;;;;18.12;100.00;99184.47;5033570;28;20143;-74
2023/08/13 02:44:00;;;;;;;16.50;8.98;;;;;;;18.09;100.00;99195.91;5042943;28;20017;-74
2023/08/13 02:46:26;;;;;;;12.20;8.50;;;;;;;17.99;100.00;99183.94;5048293;28;20504;-74
2023/08/13 02:48:55;;;;;;;11.90;7.75;;;;;;;18.00;100.00;99186.44;5034423;28;20021;-74
2023/08/13 02:51:22;;;;;;;12.98;9.13;;;;;;;17.89;100.00;99170.84;5046016;28;20029;-74
2023/08/13 02:53:47;;;;;;;11.35;8.60;;;;;;;17.90;100.00;99181.56;5050610;28;20025;-74
2023/08/13 02:56:13;;;;;;;12.65;8.30;;;;;;;17.92;100.00;99167.63;5035352;28;20071;-74
2023/08/13 02:58:38;;;;;;;17.75;10.38;;;;;;;17.94;100.00;99168.22;5037569;28;20080;-74
2023/08/13 03:01:04;;;;;;;17.60;9.27;;;;;;;18.07;100.00;99176.16;5036988;28;20033;-73
2023/08/13 03:03:30;;;;;;;17.55;8.95;;;;;;;18.04;100.00;99167.59;5059999;28;20490;-74
2023/08/13 03:05:55;;;;;;;11.50;8.10;;;;;;;18.10;100.00;99166.63;5051054;28;20479;-74
2023/08/13 03:08:21;;;;;;;13.23;7.38;;;;;;;18.13;100.00;99167.00;5055364;28;20017;-75
2023/08/13 03:10:46;;;;;;;16.52;7.95;;;;;;;18.13;100.00;99160.66;5055138;28;20238;-74
2023/08/13 03:13:11;;;;;;;13.10;8.02;;;;;;;18.14;100.00;99165.91;5032244;28;20044;-75
2023/08/13 03:15:36;;;;;;;13.93;7.80;;;;;;;18.24;100.00;99169.94;5054119;28;20028;-74
2023/08/13 03:18:02;;;;;;;19.83;8.73;;;;;;;18.13;100.00;99158.78;5051795;28;20052;-74
2023/08/13 03:20:28;;;;;;;18.10;9.55;;;;;;;18.24;100.00;99176.22;5049029;28;20398;-74
2023/08/13 03:22:53;;;;;;;15.65;9.73;;;;;;;18.22;100.00;99161.94;5031651;28;20041;-75
2023/08/13 03:25:18;;;;;;;14.82;9.60;;;;;;;18.28;100.00;99173.81;5050595;28;20162;-75
2023/08/13 03:27:43;;;;;;;13.90;8.70;;;;;;;18.31;100.00;99181.53;5032771;28;20471;-75
2023/08/13 03:30:09;;;;;;;14.07;8.93;;;;;;;18.39;100.00;99197.59;5045101;28;20033;-75
2023/08/13 03:32:35;;;;;;;13.23;7.45;;;;;;;18.35;100.00;99180.00;5030794;28;20029;-75
2023/08/13 03:35:00;;;;;;;12.38;7.35;;;;;;;18.35;100.00;99186.31;5050423;28;20419;-75
2023/08/13 03:37:26;;;;;;;9.27;6.72;;;;;;;18.25;100.00;99182.53;5037100;28;20167;-75
2023/08/13 03:39:51;;;;;;;12.32;8.02;;;;;;;18.23;100.00;99187.41;5062268;28;20021;-74
2023/08/13 03:42:16;;;;;;;12.23;8.50;;;;;;;18.20;100.00;99171.47;5035513;28;20115;-74
2023/08/13 03:44:42;;;;;;;17.05;9.85;;;;;;;18.21;100.00;99181.34;5034110;28;20037;-74
2023/08/13 03:47:07;;;;;;;12.52;8.48;;;;;;;18.15;100.00;99178.50;5054281;28;20051;-74
2023/08/13 03:49:33;;;;;;;15.15;9.00;;;;;;;18.11;100.00;99182.81;5055727;28;20021;-74
2023/08/13 03:51:58;;;;;;;12.60;9.13;;;;;;;18.11;100.00;99190.22;5045763;28;20044;-74
2023/08/13 03:54:24;;;;;;;14.82;8.43;;;;;;;18.12;100.00;99179.00;5055134;28;20020;-74
2023/08/13 03:56:50;;;;;;;17.90;10.52;;;;;;;18.07;100.00;99178.06;5054908;28;20032;-75
2023/08/13 03:59:15;;;;;;;18.13;9.30;;;;;;;18.13;100.00;99179.81;5030748;28;20112;-75
2023/08/13 04:01:40;;;;;;;17.52;9.20;;;;;;;18.08;100.00;99175.09;5054113;28;20029;-75
2023/08/13 04:04:06;;;;;;;13.02;7.95;;;;;;;18.18;100.00;99185.41;5054532;28;20028;-74
2023/08/13 04:06:31;;;;;;;16.00;9.27;;;;;;;18.17;100.00;99175.53;5035218;28;20656;-74
2023/08/13 04:08:56;;;;;;;13.25;9.27;;;;;;;18.11;100.00;99179.25;5037380;28;20016;-73
2023/08/13 04:11:21;;;;;;;14.93;9.88;;;;;;;18.17;100.00;99190.06;5052907;28;20037;-74
2023/08/13 04:13:47;;;;;;;12.85;8.60;;;;;;;18.19;100.00;99184.34;5030582;28;20525;-74
2023/08/13 04:16:12;;;;;;;13.98;8.45;;;;;;;18.20;100.00;99176.97;5049274;28;20026;-74
2023/08/13 04:18:37;;;;;;;12.05;8.68;;;;;;;18.16;100.00;99176.63;5034136;28;20215;-74
2023/08/13 04:21:02;;;;;;;13.82;8.68;;;;;;;18.18;100.00;99180.78;5053985;28;20375;-75
2023/08/13 04:23:28;;;;;;;13.65;8.80;;;;;;;18.15;100.00;99181.25;5053315;28;20120;-74
2023/08/13 04:25:53;;;;;;;14.02;9.18;;;;;;;18.19;100.00;99165.19;5049284;28;20513;-74
2023/08/13 04:28:18;;;;;;;16.25;9.38;;;;;;;18.24;100.00;99169.94;5051491;28;20111;-74
2023/08/13 04:30:44;;;;;;;16.15;9.35;;;;;;;18.28;100.00;99168.34;5054697;28;20033;-74
2023/08/13 04:33:09;;;;;;;16.25;9.68;;;;;;;18.31;100.00;99173.34;5051137;28;20112;-75
2023/08/13 04:35:34;;;;;;;11.30;8.55;;;;;;;18.36;100.00;99166.03;5053783;28;20051;-74
2023/08/13 04:37:59;;;;;;;12.65;8.65;;;;;;;18.40;100.00;99160.91;5054874;28;20027;-74
2023/08/13 04:40:25;;;;;;;12.38;8.85;;;;;;;18.35;100.00;99166.31;5050596;28;20104;-75
2023/08/13 04:42:51;;;;;;;14.93;9.02;;;;;;;18.37;100.00;99153.19;5053975;28;20032;-75
2023/08/13 04:45:16;;;;;;;10.98;7.93;;;;;;;18.36;100.00;99160.56;5053383;28;20021;-74
2023/08/13 04:47:42;;;;;;;15.85;9.45;;;;;;;18.33;100.00;99144.63;5052805;28;20075;-74
2023/08/13 04:50:09;;;;;;;15.10;8.73;;;;;;;18.47;100.00;99158.88;5051866;28;21166;-75
2023/08/13 04:52:34;;;;;;;10.05;7.53;;;;;;;18.67;100.00;99165.78;5035618;28;20025;-74
2023/08/13 04:55:00;;;;;;;9.50;7.03;;;;;;;18.74;100.00;99163.72;5033134;28;20486;-74
2023/08/13 04:57:26;;;;;;;9.40;7.50;;;;;;;18.73;100.00;99159.28;5056077;28;20021;-74
2023/08/13 04:59:51;;;;;;;7.65;6.78;;;;;;;18.69;100.00;99164.44;5056870;28;20029;-74
2023/08/13 05:02:17;;;;;;;12.55;7.10;;;;;;;18.71;100.00;99153.25;5079190;22;20055;-75
2023/08/13 05:04:42;;;;;;;9.82;7.25;;;;;;;18.69;100.00;99169.94;5037725;28;20053;-75
2023/08/13 05:07:07;;;;;;;7.63;6.32;;;;;;;18.79;100.00;99170.13;5052679;28;20032;-76
2023/08/13 05:09:34;;;;;;;11.75;6.65;;;;;;;18.85;100.00;99165.56;5053569;28;20021;-74
2023/08/13 05:11:59;;;;;;;9.38;6.70;;;;;;;18.81;100.00;99172.63;5034219;28;20030;-75
2023/08/13 05:14:25;;;;;;;12.60;7.20;;;;;;;18.89;100.00;99174.97;5019310;28;20026;-75
2023/08/13 05:16:50;;;;;;;8.65;6.32;;;;;;;18.95;100.00;99178.63;5031712;28;20025;-73
2023/08/13 05:19:15;;;;;;;8.00;6.35;;;;;;;19.04;100.00;99194.41;5029070;28;20083;-73
2023/08/13 05:21:41;;;;;;;9.15;6.38;;;;;;;19.00;100.00;99182.28;5028533;28;20160;-73
2023/08/13 05:24:06;;;;;;;7.50;6.15;;;;;;;19.02;100.00;99199.31;5033894;28;20033;-76
2023/08/13 05:26:32;;;;;;;7.43;5.90;;;;;;;18.92;100.00;99184.63;5035414;28;20029;-78
2023/08/13 05:28:57;;;;;;;11.38;6.43;;;;;;;19.02;100.00;99195.72;5027217;28;20029;-78
2023/08/13 05:31:23;;;;;;;11.30;5.70;;;;;;;19.13;100.00;99183.88;5019670;28;20027;-79
2023/08/13 05:33:48;;;;;;;13.52;6.43;;;;;;;19.21;100.00;99179.88;5023620;28;20723;-78
2023/08/13 05:36:13;;;;;;;14.27;6.38;;;;;;;19.23;100.00;99169.47;5018010;28;20025;-74
2023/08/13 05:38:39;;;;;;;8.07;6.20;;;;;;;19.11;100.00;99158.59;5036010;28;20067;-81
2023/08/13 05:41:04;;;;;;;7.68;6.07;;;;;;;19.10;100.00;99147.84;5009635;28;20025;-79
2023/08/13 05:43:31;;;;;;;8.93;6.53;;;;;;;19.15;100.00;99156.16;5018868;28;20026;-83
2023/08/13 05:45:57;;;;;;;10.15;5.95;;;;;;;19.22;100.00;99162.31;5017898;28;20429;-79
2023/08/13 05:48:22;;;;;;;8.73;5.85;;;;;;;19.31;100.00;99176.44;5033386;28;20070;-76
2023/08/13 05:50:47;;;;;;;8.00;6.15;;;;;;;19.32;100.00;99175.38;5014494;28;20033;-77
2023/08/13 05:53:13;;;;;;;7.22;6.07;;;;;;;19.25;100.00;99178.28;5027494;28;20376;-75
2023/08/13 05:55:38;;;;;;;7.38;6.20;;;;;;;19.30;100.00;99186.59;5017111;28;20029;-78
2023/08/13 05:58:05;;;;;;;7.07;5.15;;;;;;;19.47;100.00;99187.41;5024828;28;20100;-76
2023/08/13 06:00:31;;;;;;;6.78;5.60;;;;;;;19.42;100.00;99183.75;5028345;28;20025;-77
2023/08/13 06:02:56;;;;;;;8.82;5.25;;;;;;;19.63;100.00;99195.84;5031759;28;20017;-75
2023/08/13 06:05:22;;;;;;;6.95;5.40;;;;;;;19.59;100.00;99191.94;5025977;28;20026;-76
2023/08/13 06:07:48;;;;;;;8.38;5.60;;;;;;;19.61;100.00;99179.63;5043896;28;20072;-80
2023/08/13 06:10:14;;;;;;;9.82;5.85;;;;;;;19.80;100.00;99195.84;5024230;28;20021;-76
2023/08/13 06:12:39;;;;;;;8.68;6.05;;;;;;;19.75;100.00;99171.88;5032646;28;20025;-79
2023/08/13 06:15:05;;;;;;;7.35;4.90;;;;;;;20.04;100.00;99188.16;5030054;28;20041;-77
2023/08/13 06:17:30;;;;;;;6.75;5.65;;;;;;;20.07;100.00;99179.44;5035009;28;20025;-78
2023/08/13 06:19:55;;;;;;;6.22;5.05;;;;;;;20.01;100.00;99159.31;5029312;28;20061;-75
2023/08/13 06:22:21;;;;;;;6.13;4.45;;;;;;;20.21;100.00;99155.97;5029059;28;20029;-75
2023/08/13 06:24:47;;;;;;;5.45;4.82;;;;;;;20.23;100.00;99147.47;5026651;28;20550;-73
2023/08/13 06:27:12;;;;;;;7.90;4.90;;;;;;;20.31;100.00;99161.59;5025079;28;20368;-74
2023/08/13 06:29:38;;;;;;;7.95;4.72;;;;;;;20.38;100.00;99163.28;5028207;28;20060;-74
2023/08/13 06:32:03;;;;;;;10.23;4.85;;;;;;;20.37;100.00;99148.72;5030556;28;20033;-74
2023/08/13 06:34:28;;;;;;;6.47;4.47;;;;;;;20.28;100.00;99144.78;5025456;28;20041;-74
2023/08/13 06:36:54;;;;;;;5.22;4.20;;;;;;;20.42;100.00;99148.78;5012996;28;20140;-74
2023/08/13 06:39:19;;;;;;;5.50;4.38;;;;;;;20.51;100.00;99143.63;5029054;28;20025;-73
2023/08/13 06:41:45;;;;;;;6.93;4.63;;;;;;;20.60;100.00;99155.84;5031137;28;20035;-74
2023/08/13 06:44:18;;;;;;;7.07;4.47;;;;;;;20.67;100.00;99161.97;5019084;28;20530;-73
2023/08/13 06:46:43;;;;;;;4.57;4.03;;;;;;;20.82;100.00;99169.53;5031339;28;20459;-73
2023/08/13 06:49:08;;;;;;;4.53;3.50;;;;;;;20.96;100.00;99154.25;5026782;28;20022;-72
2023/08/13 06:51:33;;;;;;;4.72;3.97;;;;;;;21.16;100.00;99161.81;5014472;28;20033;-73
2023/08/13 06:53:59;;;;;;;4.43;3.60;;;;;;;21.31;100.00;99154.78;5029208;28;20108;-73
2023/08/13 06:56:24;;;;;;;6.28;3.65;;;;;;;21.50;100.00;99158.78;5026406;28;20022;-73
2023/08/13 06:58:49;;;;;;;4.43;3.70;;;;;;;21.58;100.00;99150.00;5029529;28;20116;-73
2023/08/13 07:01:15;;;;;;;5.05;3.28;;;;;;;21.68;100.00;99157.50;5022014;28;20103;-72
2023/08/13 07:03:41;;;;;;;5.78;3.92;;;;;;;21.51;100.00;99152.19;5015334;28;20030;-73
2023/08/13 07:06:06;;;;;;;6.72;4.28;;;;;;;21.45;100.00;99159.56;5025747;28;20133;-73
2023/08/13 07:08:32;;;;;;;5.18;3.78;;;;;;;21.54;100.00;99153.59;5031116;28;20483;-77
2023/08/13 07:10:59;;;;;;;5.22;3.75;;;;;;;21.61;100.00;99146.75;5034732;28;20037;-78
2023/08/13 07:13:25;;;;;;;5.45;4.00;;;;;;;21.67;100.00;99153.91;5016655;28;20064;-78
2023/08/13 07:15:51;;;;;;;5.93;3.50;;;;;;;21.87;100.00;99138.56;5034248;28;20194;-79
2023/08/13 07:18:16;;;;;;;6.00;3.35;;;;;;;22.12;100.00;99126.81;5015739;28;20029;-78
2023/08/13 07:20:42;;;;;;;5.55;3.22;;;;;;;22.25;100.00;99120.00;5020787;28;20093;-79
2023/08/13 07:23:07;;;;;;;3.90;2.88;;;;;;;22.24;100.00;99086.09;5036212;28;20041;-79
2023/08/13 07:25:32;;;;;;;4.47;3.30;;;;;;;22.45;100.00;99113.69;5041232;28;20037;-77
2023/08/13 07:27:58;;;;;;;3.35;2.90;;;;;;;22.59;100.00;99114.00;5034403;28;20064;-75
2023/08/13 07:30:23;;;;;;;5.78;3.42;;;;;;;22.51;100.00;99113.44;5009831;28;20124;-75
2023/08/13 07:32:48;;;;;;;3.72;3.28;;;;;;;22.31;100.00;99113.41;5027947;28;20405;-73
2023/08/13 07:35:14;;;;;;;4.90;3.85;;;;;;;22.36;100.00;99107.06;5025296;28;20367;-78
2023/08/13 07:37:39;;;;;;;5.88;3.30;;;;;;;22.29;100.00;99116.41;5035420;28;20075;-79
2023/08/13 07:40:11;;;;;;;4.63;3.22;;;;;;;22.47;100.00;99120.56;5035353;28;20025;-76
2023/08/13 07:42:36;;;;;;;6.15;4.10;;;;;;;22.51;100.00;99110.66;5017288;28;20053;-79
2023/08/13 07:45:05;;;;;;;3.80;3.42;;;;;;;22.72;100.00;99100.47;5018044;28;20022;-80
2023/08/13 07:47:31;;;;;;;3.80;3.00;;;;;;;23.37;100.00;99095.19;5017361;28;20089;-82
2023/08/13 07:49:56;;;;;;;4.82;3.17;;;;;;;23.97;100.00;99080.59;5012926;28;20125;-76
2023/08/13 07:52:22;;;;;;;5.20;3.40;;;;;;;23.54;100.00;99075.50;5008543;28;20029;-77
2023/08/13 07:54:47;;;;;;;6.25;3.33;;;;;;;23.44;100.00;99086.59;4995112;28;20033;-75
2023/08/13 07:57:12;;;;;;;4.38;3.10;;;;;;;23.22;100.00;99092.44;5006961;28;20053;-79
2023/08/13 07:59:38;;;;;;;8.15;3.30;;;;;;;22.91;100.00;99072.31;5028223;28;20116;-78
2023/08/13 08:02:03;;;;;;;5.63;4.10;;;;;;;22.82;100.00;99098.81;5014200;28;20029;-77
2023/08/13 08:04:29;;;;;;;4.50;3.60;;;;;;;23.01;100.00;99086.16;5029799;28;20032;-77
2023/08/13 08:06:54;;;;;;;6.07;3.33;;;;;;;23.16;100.00;99080.59;5010430;28;20060;-75
2023/08/13 08:09:19;;;;;;;4.47;3.40;;;;;;;23.42;100.00;99083.28;5029309;28;20029;-77
2023/08/13 08:11:45;;;;;;;4.40;3.30;;;;;;;24.08;100.00;99093.25;5029800;28;20112;-76
2023/08/13 08:14:10;;;;;;;3.63;3.00;;;;;;;24.30;100.00;99075.44;5031150;28;20091;-73
2023/08/13 08:16:35;;;;;;;4.90;3.00;;;;;;;24.05;100.00;99075.31;5033560;28;20040;-73
2023/08/13 08:19:01;;;;;;;4.43;2.60;;;;;;;24.25;100.00;99071.56;5001768;28;20028;-73
2023/08/13 08:21:26;;;;;;;6.53;3.22;;;;;;;24.25;100.00;99068.81;5009718;28;20365;-73
2023/08/13 08:23:51;;;;;;;6.65;2.63;;;;;;;23.93;100.00;99063.75;5014533;28;20064;-72
2023/08/13 08:26:17;;;;;;;4.65;2.42;;;;;;;24.08;100.00;99068.38;5015295;28;20025;-74
2023/08/13 08:28:42;;;;;;;3.40;2.42;;;;;;;24.03;100.00;99060.94;5030955;28;20021;-73
2023/08/13 08:31:07;;;;;;;4.20;2.33;;;;;;;24.01;100.00;99062.34;5031109;28;20029;-73
2023/08/13 08:33:32;;;;;;;2.65;2.00;;;;;;;24.45;100.00;99056.81;5030973;28;20052;-74
2023/08/13 08:35:58;;;;;;;3.72;2.25;;;;;;;24.80;100.00;99059.56;5033960;28;20029;-74
2023/08/13 08:38:23;;;;;;;2.80;2.13;;;;;;;24.58;100.00;99044.25;5013967;28;20033;-73
2023/08/13 08:40:52;;;;;;;5.65;2.25;;;;;;;24.23;100.00;99040.63;5036028;28;20028;-76
2023/08/13 08:43:17;;;;;;;3.60;2.17;;;;;;;23.61;100.00;99042.06;5030213;28;20490;-78
2023/08/13 08:45:44;;;;;;;3.97;2.08;;;;;;;23.55;100.00;99044.03;5033872;28;20042;-74
2023/08/13 08:48:11;;;;;;;3.17;2.42;;;;;;;23.77;100.00;99046.44;5009888;28;20014;-77
2023/08/13 08:50:36;;;;;;;2.85;1.98;;;;;;;23.96;100.00;99038.31;5028924;28;20025;-76
2023/08/13 08:53:03;;;;;;;4.00;2.20;;;;;;;24.84;100.00;99050.41;5023144;28;20033;-77
2023/08/13 08:55:28;;;;;;;2.70;1.70;;;;;;;25.34;100.00;99042.69;5027459;28;20032;-77
2023/08/13 08:57:54;;;;;;;4.13;1.80;;;;;;;25.87;100.00;99032.63;5017880;28;20045;-77
2023/08/13 09:00:20;;;;;;;3.50;1.90;;;;;;;26.12;100.00;99026.72;5036252;28;20028;-78
2023/08/13 09:02:45;;;;;;;4.15;1.80;;;;;;;27.45;100.00;99021.59;5033509;28;20021;-78
2023/08/13 09:05:11;;;;;;;3.03;1.52;;;;;;;28.06;100.00;99016.72;5021313;28;20033;-77
2023/08/13 09:07:42;;;;;;;3.85;1.85;;;;;;;28.22;100.00;99019.97;5014909;28;20037;-77
2023/08/13 09:10:08;;;;;;;2.45;1.88;;;;;;;27.78;100.00;99031.78;5013102;28;20029;-76
2023/08/13 09:12:36;;;;;;;2.67;1.67;;;;;;;26.94;100.00;99011.50;5031698;28;20041;-76
2023/08/13 09:15:09;;;;;;;4.55;1.98;;;;;;;26.12;100.00;99020.34;5029498;28;20179;-76
2023/08/13 09:17:35;;;;;;;2.53;1.88;;;;;;;26.64;100.00;99032.28;5026141;28;20036;-74
2023/08/13 09:20:09;;;;;;;3.10;1.52;;;;;;;26.16;100.00;99010.31;5012219;28;20025;-74
2023/08/13 09:22:34;;;;;;;3.03;1.75;;;;;;;26.79;100.00;99012.59;5028781;28;20057;-74
2023/08/13 09:25:03;;;;;;;3.20;1.70;;;;;;;27.16;100.00;98998.84;5015925;28;20537;-76
2023/08/13 09:27:29;;;;;;;4.63;2.10;;;;;;;26.54;100.00;99010.25;5023343;28;20029;-74
2023/08/13 09:29:54;;;;;;;4.72;1.63;;;;;;;26.55;100.00;98998.06;5028205;28;20029;-76
2023/08/13 09:32:20;;;;;;;3.45;1.70;;;;;;;26.73;100.00;98997.16;5029402;28;20063;-76
2023/08/13 09:34:46;;;;;;;4.45;1.73;;;;;;;26.27;100.00;99000.69;5013571;28;20063;-76
2023/08/13 09:37:11;;;;;;;2.85;1.80;;;;;;;25.97;100.00;98975.09;5029992;28;20112;-76
2023/08/13 09:39:36;;;;;;;2.70;1.90;;;;;;;26.23;100.00;98983.00;5028022;28;20061;-76
2023/08/13 09:42:05;;;;;;;5.13;1.80;;;;;;;25.85;100.00;98996.06;5030928;28;20499;-76
2023/08/13 09:44:30;;;;;;;3.70;2.10;;;;;;;25.49;100.00;98991.81;5015019;28;20059;-76
2023/08/13 09:47:03;;;;;;;4.38;2.00;;;;;;;25.24;100.00;98995.72;5026326;28;20118;-73
2023/08/13 09:49:31;;;;;;;3.33;1.90;;;;;;;24.49;100.00;99002.56;5026773;28;20032;-74
2023/08/13 09:52:02;;;;;;;4.63;2.30;;;;;;;24.42;100.00;98996.53;5030642;28;20112;-73
2023/08/13 09:55:06;;;;;;;3.20;2.10;;;;;;;26.00;100.00;98991.13;5032011;28;20141;-74
2023/08/13 09:57:32;;;;;;;2.78;1.52;;;;;;;27.42;100.00;98977.78;5009955;28;20102;-75
2023/08/13 09:59:58;;;;;;;5.35;1.80;;;;;;;28.22;100.00;98989.34;5009387;28;20026;-76
2023/08/13 10:02:25;;;;;;;6.43;1.83;;;;;;;28.64;100.00;98962.16;5030221;28;20044;-75
2023/08/13 10:04:51;;;;;;;3.22;1.55;;;;;;;28.87;100.00;98962.91;5025209;28;20026;-75
2023/08/13 10:07:18;;;;;;;3.53;1.65;;;;;;;28.38;100.00;98964.75;5029564;28;20029;-75
2023/08/13 10:09:45;;;;;;;3.75;1.80;;;;;;;28.79;100.00;98980.38;5031799;28;20422;-76
2023/08/13 10:12:11;;;;;;;2.72;1.55;;;;;;;29.25;100.00;98981.94;5026476;28;20029;-75
2023/08/13 10:14:36;;;;;;;3.10;1.50;;;;;;;30.32;100.00;98959.13;5023126;28;20031;-75
2023/08/13 10:17:06;;;;;;;4.15;1.60;;;;;;;31.42;100.00;98973.41;5030905;28;20113;-76
2023/08/13 10:19:36;;;;;;;2.58;1.52;;;;;;;32.37;100.00;98973.06;5029836;28;20548;-74
2023/08/13 10:22:01;;;;;;;2.72;1.73;;;;;;;33.22;100.00;98964.03;5029479;28;20033;-76
2023/08/13 10:24:30;;;;;;;2.63;1.67;;;;;;;35.03;100.00;98952.94;5016161;28;20033;-76
2023/08/13 10:26:59;;;;;;;4.55;1.70;;;;;;;33.50;100.00;98949.31;5012798;28;20025;-76
2023/08/13 10:29:35;;;;;;;3.05;1.70;;;;;;;32.88;100.00;98968.91;5026636;28;20022;-75
2023/08/13 10:32:09;;;;;;;3.10;1.40;;;;;;;33.03;100.00;98972.22;5012849;28;20028;-76
2023/08/13 10:34:50;;;;;;;4.57;1.98;;;;;;;33.99;100.00;98961.25;5013372;28;20048;-76
2023/08/13 10:37:21;;;;;;;2.00;1.50;;;;;;;32.88;100.00;98966.09;5028880;28;20029;-76
2023/08/13 10:40:03;;;;;;;3.17;1.90;;;;;;;31.99;100.00;98968.44;5004153;28;20034;-76
2023/08/13 10:42:33;;;;;;;2.58;1.80;;;;;;;30.66;100.00;98970.56;5008883;28;20082;-76
2023/08/13 10:45:05;;;;;;;3.60;1.77;;;;;;;30.21;100.00;98962.53;5012342;28;20033;-76
2023/08/13 10:47:47;;;;;;;2.70;1.67;;;;;;;30.23;100.00;98960.25;5027519;28;20021;-76
2023/08/13 10:50:19;;;;;;;3.88;2.50;;;;;;;29.52;100.00;98957.75;5025408;28;20025;-76
2023/08/13 10:53:04;;;;;;;5.50;1.77;;;;;;;29.38;100.00;98961.47;5030761;28;20032;-75
2023/08/13 10:55:33;;;;;;;5.70;1.88;;;;;;;29.59;100.00;98944.97;5032243;28;20032;-76
2023/08/13 10:57:59;;;;;;;2.60;1.63;;;;;;;30.16;100.00;98963.56;5020116;28;20116;-76
2023/08/13 11:00:26;;;;;;;3.00;1.80;;;;;;;29.86;100.00;98954.19;5010495;28;20026;-75
2023/08/13 11:03:16;;;;;;;3.17;1.85;;;;;;;29.74;100.00;98952.06;5010717;28;20083;-75
2023/08/13 11:05:43;;;;;;;3.03;1.80;;;;;;;28.81;100.00;98942.72;5024188;28;20121;-76
2023/08/13 11:08:08;;;;;;;4.18;1.42;;;;;;;29.25;100.00;98940.13;5005246;28;20558;-76
2023/08/13 11:10:35;;;;;;;4.85;1.90;;;;;;;28.65;100.00;98957.41;5056132;22;20127;-60
2023/08/13 11:13:04;;;;;;;2.78;1.45;;;;;;;29.07;100.00;98957.94;5015333;28;20544;-60
2023/08/13 11:15:30;;;;;;;2.83;1.50;;;;;;;28.85;100.00;98956.84;5025701;28;20032;-62
2023/08/13 11:17:55;;;;;;;3.53;1.85;;;;;;;28.78;100.00;98970.41;5020812;28;20043;-60
2023/08/13 11:20:21;;;;;;;2.60;1.70;;;;;;;28.55;100.00;98961.28;5010794;28;20032;-60
2023/08/13 11:22:47;;;;;;;5.07;1.83;;;;;;;28.54;100.00;98966.03;5005047;28;20116;-60
2023/08/13 11:25:14;;;;;;;3.10;1.90;;;;;;;28.35;100.00;98957.03;5014139;28;20109;-60